N67F KMEM-KMEM
Flight info
| Callsign | N67F |
|---|---|
| Flight time | 0h 7m |
| Altitude | VFR |
| Route | VFR PATTERN |
| Aircraft | BT36/L-DOV/C |
Departure
| Time | 2026-05-05 00:49 |
|---|---|
| Airport | Memphis International Airport (KMEM) |
Arrival
| Time | 2026-05-05 00:56 |
|---|---|
| Airport | Memphis International Airport (KMEM) |
| Time | Latitude | Longitude | Altitude | Speed | Heading |
|---|---|---|---|---|---|
| 2026-05-05 00:32 | 35.05478 | -89.98145 | 227 ft | 0 kts | 91° |
| 2026-05-05 00:36 | 35.05494 | -89.98138 | 295 ft | 9 kts | 308° |
| 2026-05-05 00:36 | 35.05472 | -89.98204 | 288 ft | 6 kts | 259° |
| 2026-05-05 00:37 | 35.05471 | -89.98212 | 288 ft | 0 kts | 262° |
| 2026-05-05 00:37 | 35.05463 | -89.98229 | 286 ft | 5 kts | 269° |
| 2026-05-05 00:37 | 35.05495 | -89.98320 | 283 ft | 16 kts | 284° |
| 2026-05-05 00:38 | 35.05570 | -89.98418 | 282 ft | 11 kts | 279° |
| 2026-05-05 00:38 | 35.05571 | -89.98443 | 282 ft | 0 kts | 269° |
| 2026-05-05 00:43 | 35.05569 | -89.98486 | 281 ft | 11 kts | 247° |
| 2026-05-05 00:43 | 35.05476 | -89.98510 | 280 ft | 19 kts | 181° |
| 2026-05-05 00:43 | 35.05326 | -89.98512 | 282 ft | 23 kts | 181° |
| 2026-05-05 00:44 | 35.05169 | -89.98515 | 288 ft | 14 kts | 182° |
| 2026-05-05 00:44 | 35.05057 | -89.98557 | 289 ft | 14 kts | 207° |
| 2026-05-05 00:44 | 35.04964 | -89.98608 | 292 ft | 11 kts | 207° |
| 2026-05-05 00:44 | 35.04935 | -89.98644 | 294 ft | 6 kts | 260° |
| 2026-05-05 00:45 | 35.04890 | -89.98738 | 293 ft | 22 kts | 190° |
| 2026-05-05 00:45 | 35.04551 | -89.98735 | 293 ft | 79 kts | 180° |
| 2026-05-05 00:45 | 35.03907 | -89.98707 | 514 ft | 113 kts | 181° |
| 2026-05-05 00:45 | 35.03032 | -89.98703 | 759 ft | 129 kts | 179° |
| 2026-05-05 00:46 | 35.02159 | -89.98680 | 886 ft | 114 kts | 187° |
| 2026-05-05 00:46 | 35.01499 | -89.99072 | 883 ft | 109 kts | 230° |
| 2026-05-05 00:46 | 35.01461 | -89.99975 | 917 ft | 123 kts | 296° |
| 2026-05-05 00:46 | 35.02299 | -90.00354 | 814 ft | 145 kts | 1° |
| 2026-05-05 00:47 | 35.03321 | -90.00283 | 755 ft | 146 kts | 359° |
| 2026-05-05 00:47 | 35.04323 | -90.00194 | 824 ft | 143 kts | 5° |
| 2026-05-05 00:47 | 35.05285 | -90.00061 | 842 ft | 126 kts | 12° |
| 2026-05-05 00:47 | 35.05893 | -89.99492 | 679 ft | 109 kts | 82° |
| 2026-05-05 00:48 | 35.05695 | -89.98835 | 575 ft | 81 kts | 169° |
| 2026-05-05 00:48 | 35.05201 | -89.98748 | 373 ft | 65 kts | 183° |
| 2026-05-05 00:48 | 35.04772 | -89.98738 | 293 ft | 51 kts | 187° |
| 2026-05-05 00:48 | 35.04357 | -89.98726 | 365 ft | 82 kts | 183° |
| 2026-05-05 00:49 | 35.03670 | -89.98686 | 638 ft | 112 kts | 178° |
| 2026-05-05 00:49 | 35.02840 | -89.98698 | 882 ft | 123 kts | 182° |
| 2026-05-05 00:49 | 35.01990 | -89.98691 | 1050 ft | 120 kts | 191° |
| 2026-05-05 00:49 | 35.01387 | -89.99259 | 1156 ft | 120 kts | 243° |
| 2026-05-05 00:50 | 35.01714 | -90.00210 | 1062 ft | 143 kts | 327° |
| 2026-05-05 00:50 | 35.02724 | -90.00299 | 916 ft | 148 kts | 1° |
| 2026-05-05 00:50 | 35.03713 | -90.00223 | 852 ft | 137 kts | 2° |
| 2026-05-05 00:50 | 35.04685 | -90.00168 | 786 ft | 142 kts | 5° |
| 2026-05-05 00:51 | 35.05619 | -89.99965 | 728 ft | 130 kts | 35° |
| 2026-05-05 00:51 | 35.05816 | -89.99184 | 709 ft | 87 kts | 142° |
| 2026-05-05 00:51 | 35.05411 | -89.98818 | 435 ft | 69 kts | 167° |
| 2026-05-05 00:51 | 35.04932 | -89.98743 | 315 ft | 69 kts | 183° |
| 2026-05-05 00:52 | 35.04530 | -89.98737 | 292 ft | 59 kts | 177° |
| 2026-05-05 00:52 | 35.03943 | -89.98721 | 419 ft | 102 kts | 183° |
| 2026-05-05 00:52 | 35.03153 | -89.98701 | 673 ft | 116 kts | 179° |
| 2026-05-05 00:52 | 35.02330 | -89.98687 | 948 ft | 115 kts | 187° |
| 2026-05-05 00:53 | 35.01618 | -89.99001 | 1088 ft | 111 kts | 218° |
| 2026-05-05 00:53 | 35.01393 | -89.99895 | 1143 ft | 122 kts | 287° |
| 2026-05-05 00:53 | 35.02284 | -90.00216 | 907 ft | 150 kts | 359° |
| 2026-05-05 00:53 | 35.03339 | -90.00120 | 815 ft | 149 kts | 6° |
| 2026-05-05 00:54 | 35.04262 | -90.00070 | 748 ft | 122 kts | 2° |
| 2026-05-05 00:54 | 35.05055 | -90.00032 | 673 ft | 111 kts | 1° |
| 2026-05-05 00:54 | 35.05748 | -89.99661 | 595 ft | 110 kts | 60° |
| 2026-05-05 00:54 | 35.05744 | -89.98858 | 566 ft | 93 kts | 148° |
| 2026-05-05 00:55 | 35.05224 | -89.98744 | 375 ft | 75 kts | 182° |
| 2026-05-05 00:55 | 35.04712 | -89.98738 | 294 ft | 65 kts | 184° |
| 2026-05-05 00:55 | 35.04208 | -89.98723 | 368 ft | 91 kts | 181° |
| 2026-05-05 00:55 | 35.03464 | -89.98720 | 637 ft | 119 kts | 180° |
| 2026-05-05 00:56 | 35.02594 | -89.98743 | 995 ft | 128 kts | 184° |
| 2026-05-05 00:56 | 35.01737 | -89.98802 | 1132 ft | 119 kts | 195° |
| 2026-05-05 00:56 | 35.01220 | -89.99545 | 1098 ft | 127 kts | 259° |
| 2026-05-05 00:56 | 35.01765 | -89.99985 | 709 ft | 0 kts | 79° |
| 2026-05-05 00:57 | 35.02275 | -89.99536 | 708 ft | 121 kts | 352° |
| 2026-05-05 00:57 | 35.03141 | -89.99586 | 722 ft | 126 kts | 357° |
| 2026-05-05 00:57 | 35.04039 | -89.99635 | 686 ft | 120 kts | 0° |
| 2026-05-05 00:57 | 35.04835 | -89.99619 | 645 ft | 114 kts | 359° |
| 2026-05-05 00:58 | 35.05663 | -89.99526 | 546 ft | 121 kts | 13° |
| 2026-05-05 00:58 | 35.05925 | -89.98962 | 485 ft | 109 kts | 161° |
| 2026-05-05 00:58 | 35.05276 | -89.98776 | 378 ft | 85 kts | 175° |
| 2026-05-05 00:58 | 35.04770 | -89.98741 | 294 ft | 56 kts | 183° |
| 2026-05-05 00:59 | 35.04560 | -89.98738 | 292 ft | 45 kts | 177° |
| 2026-05-05 00:59 | 35.04072 | -89.98722 | 368 ft | 84 kts | 182° |
| 2026-05-05 00:59 | 35.03446 | -89.98704 | 553 ft | 93 kts | 177° |
| 2026-05-05 00:59 | 35.02742 | -89.98655 | 742 ft | 118 kts | 178° |
| 2026-05-05 01:00 | 35.01869 | -89.98706 | 916 ft | 127 kts | 188° |
| 2026-05-05 01:00 | 35.01210 | -89.99205 | 966 ft | 129 kts | 259° |
| 2026-05-05 01:00 | 35.01794 | -90.00043 | 1038 ft | 139 kts | 335° |
| 2026-05-05 01:00 | 35.02788 | -90.00182 | 1006 ft | 147 kts | 355° |
| 2026-05-05 01:01 | 35.03823 | -90.00137 | 1028 ft | 155 kts | 2° |
| 2026-05-05 01:01 | 35.04916 | -90.00101 | 893 ft | 150 kts | 359° |
| 2026-05-05 01:01 | 35.05897 | -90.00030 | 915 ft | 139 kts | 0° |
| 2026-05-05 01:01 | 35.06805 | -89.99762 | 1053 ft | 131 kts | 47° |
| 2026-05-05 01:02 | 35.06763 | -89.98849 | 825 ft | 91 kts | 157° |
| 2026-05-05 01:02 | 35.06197 | -89.98773 | 643 ft | 84 kts | 185° |
| 2026-05-05 01:02 | 35.05686 | -89.98766 | 569 ft | 70 kts | 193° |
| 2026-05-05 01:02 | 35.05244 | -89.99075 | 790 ft | 84 kts | 224° |
| 2026-05-05 01:03 | 35.04829 | -89.99653 | 932 ft | 95 kts | 229° |
| 2026-05-05 01:03 | 35.04389 | -90.00328 | 912 ft | 104 kts | 227° |
| 2026-05-05 01:03 | 35.03980 | -90.01051 | 1072 ft | 97 kts | 230° |
| 2026-05-05 01:03 | 35.03555 | -90.01658 | 1188 ft | 95 kts | 229° |
| 2026-05-05 01:04 | 35.03207 | -90.02338 | 1378 ft | 86 kts | 217° |
| 2026-05-05 01:04 | 35.03130 | -90.01404 | 1400 ft | 136 kts | 30° |
| 2026-05-05 01:04 | 35.03922 | -90.01060 | 1143 ft | 112 kts | 14° |
| 2026-05-05 01:05 | 35.04705 | -90.00860 | 883 ft | 114 kts | 12° |
| 2026-05-05 01:05 | 35.05488 | -90.00681 | 768 ft | 108 kts | 11° |
| 2026-05-05 01:05 | 35.06142 | -90.00212 | 797 ft | 108 kts | 70° |
| 2026-05-05 01:05 | 35.06125 | -89.99403 | 650 ft | 99 kts | 115° |
| 2026-05-05 01:06 | 35.05648 | -89.98852 | 519 ft | 90 kts | 171° |
| 2026-05-05 01:06 | 35.05130 | -89.98760 | 349 ft | 70 kts | 181° |
| 2026-05-05 01:06 | 35.04701 | -89.98741 | 291 ft | 48 kts | 182° |
| 2026-05-05 01:06 | 35.04210 | -89.98719 | 471 ft | 84 kts | 180° |
| 2026-05-05 01:07 | 35.03491 | -89.98671 | 703 ft | 117 kts | 182° |
| 2026-05-05 01:07 | 35.02724 | -89.98699 | 832 ft | 101 kts | 178° |
| 2026-05-05 01:07 | 35.01992 | -89.98668 | 806 ft | 104 kts | 185° |
| 2026-05-05 01:07 | 35.01473 | -89.99047 | 715 ft | 83 kts | 247° |
| 2026-05-05 01:08 | 35.01449 | -89.99753 | 626 ft | 87 kts | 262° |
| 2026-05-05 01:08 | 35.01931 | -90.00209 | 664 ft | 107 kts | 348° |
| 2026-05-05 01:08 | 35.02644 | -90.00213 | 660 ft | 106 kts | 359° |
| 2026-05-05 01:08 | 35.03417 | -90.00160 | 751 ft | 118 kts | 2° |
| 2026-05-05 01:09 | 35.04185 | -90.00162 | 698 ft | 100 kts | 0° |
| 2026-05-05 01:09 | 35.04879 | -90.00116 | 624 ft | 101 kts | 6° |
| 2026-05-05 01:09 | 35.05610 | -89.99997 | 610 ft | 112 kts | 3° |
| 2026-05-05 01:09 | 35.06382 | -89.99891 | 769 ft | 111 kts | 358° |
| 2026-05-05 01:10 | 35.07152 | -89.99862 | 943 ft | 115 kts | 356° |
| 2026-05-05 01:10 | 35.07932 | -89.99871 | 893 ft | 113 kts | 353° |
| 2026-05-05 01:10 | 35.08681 | -89.99792 | 962 ft | 102 kts | 32° |
| 2026-05-05 01:10 | 35.08705 | -89.99161 | 933 ft | 94 kts | 145° |
| 2026-05-05 01:11 | 35.08096 | -89.98854 | 955 ft | 97 kts | 176° |
| 2026-05-05 01:11 | 35.07457 | -89.98784 | 932 ft | 85 kts | 182° |
| 2026-05-05 01:11 | 35.06840 | -89.98783 | 654 ft | 93 kts | 187° |
| 2026-05-05 01:11 | 35.06215 | -89.98763 | 568 ft | 85 kts | 183° |
| 2026-05-05 01:12 | 35.05636 | -89.98760 | 449 ft | 83 kts | 181° |
| 2026-05-05 01:12 | 35.05092 | -89.98749 | 342 ft | 79 kts | 180° |
| 2026-05-05 01:12 | 35.04567 | -89.98742 | 417 ft | 72 kts | 184° |
| 2026-05-05 01:12 | 35.04010 | -89.98703 | 585 ft | 93 kts | 185° |
| 2026-05-05 01:13 | 35.03332 | -89.98687 | 691 ft | 102 kts | 179° |
| 2026-05-05 01:13 | 35.02624 | -89.98651 | 855 ft | 107 kts | 176° |
| 2026-05-05 01:13 | 35.01803 | -89.98742 | 1182 ft | 128 kts | 201° |
| 2026-05-05 01:13 | 35.01397 | -89.99506 | 1358 ft | 121 kts | 271° |
| 2026-05-05 01:14 | 35.02059 | -90.00186 | 1102 ft | 141 kts | 345° |
| 2026-05-05 01:14 | 35.03025 | -90.00226 | 876 ft | 134 kts | 358° |
| 2026-05-05 01:14 | 35.03901 | -90.00201 | 840 ft | 117 kts | 1° |
| 2026-05-05 01:14 | 35.04750 | -90.00092 | 884 ft | 134 kts | 0° |
| 2026-05-05 01:15 | 35.05748 | -90.00059 | 948 ft | 149 kts | 356° |
| 2026-05-05 01:15 | 35.06780 | -89.99909 | 1152 ft | 147 kts | 20° |
| 2026-05-05 01:15 | 35.07195 | -89.99043 | 1345 ft | 121 kts | 125° |
| 2026-05-05 01:15 | 35.06629 | -89.98790 | 1056 ft | 77 kts | 189° |
| 2026-05-05 01:16 | 35.06133 | -89.98842 | 716 ft | 69 kts | 172° |
| 2026-05-05 01:16 | 35.05672 | -89.98776 | 456 ft | 66 kts | 180° |
| 2026-05-05 01:16 | 35.05162 | -89.98750 | 339 ft | 66 kts | 185° |
| 2026-05-05 01:16 | 35.04736 | -89.98739 | 294 ft | 53 kts | 185° |
| 2026-05-05 01:17 | 35.04332 | -89.98727 | 356 ft | 72 kts | 183° |
| 2026-05-05 01:17 | 35.03674 | -89.98721 | 494 ft | 112 kts | 179° |
| 2026-05-05 01:17 | 35.02871 | -89.98686 | 689 ft | 115 kts | 182° |
| 2026-05-05 01:17 | 35.02096 | -89.98696 | 959 ft | 109 kts | 194° |
| 2026-05-05 01:18 | 35.01639 | -89.99275 | 1155 ft | 101 kts | 260° |
| 2026-05-05 01:18 | 35.01775 | -90.00140 | 1199 ft | 115 kts | 302° |
| 2026-05-05 01:18 | 35.02451 | -90.00673 | 1234 ft | 129 kts | 347° |
| 2026-05-05 01:18 | 35.03412 | -90.00582 | 1276 ft | 150 kts | 2° |
| 2026-05-05 01:19 | 35.04480 | -90.00447 | 1412 ft | 158 kts | 2° |
| 2026-05-05 01:19 | 35.05540 | -90.00328 | 1465 ft | 147 kts | 4° |
| 2026-05-05 01:19 | 35.06604 | -90.00193 | 1393 ft | 161 kts | 6° |
| 2026-05-05 01:19 | 35.07640 | -89.99811 | 1171 ft | 145 kts | 40° |
| 2026-05-05 01:20 | 35.07670 | -89.98995 | 991 ft | 88 kts | 150° |
| 2026-05-05 01:20 | 35.07172 | -89.98792 | 709 ft | 81 kts | 180° |
| 2026-05-05 01:20 | 35.06629 | -89.98770 | 611 ft | 69 kts | 188° |
| 2026-05-05 01:20 | 35.06127 | -89.98774 | 509 ft | 75 kts | 184° |
| 2026-05-05 01:21 | 35.05631 | -89.98749 | 377 ft | 69 kts | 185° |
| 2026-05-05 01:21 | 35.05164 | -89.98736 | 286 ft | 55 kts | 183° |
| 2026-05-05 01:21 | 35.04938 | -89.98714 | 294 ft | 16 kts | 133° |
| 2026-05-05 01:21 | 35.04935 | -89.98643 | 293 ft | 0 kts | 91° |
| 2026-05-05 01:22 | 35.04935 | -89.98635 | 293 ft | 4 kts | 91° |
| 2026-05-05 01:22 | 35.04939 | -89.98553 | 291 ft | 13 kts | 67° |
| 2026-05-05 01:23 | 35.05085 | -89.98516 | 290 ft | 47 kts | 360° |
| 2026-05-05 01:23 | 35.05367 | -89.98513 | 281 ft | 35 kts | 359° |
| 2026-05-05 01:23 | 35.05540 | -89.98507 | 280 ft | 19 kts | 10° |
| 2026-05-05 01:23 | 35.05548 | -89.98396 | 282 ft | 15 kts | 124° |
| 2026-05-05 01:24 | 35.05496 | -89.98304 | 284 ft | 12 kts | 99° |
| 2026-05-05 01:24 | 35.05494 | -89.98231 | 287 ft | 0 kts | 88° |